Main page
METAR-TAF:

METAR-TAF

Airports :

Kuwait International Airport

Kuwait City, Kuwait

latitude: 29-13N, longitude: 047-59E, elevation: 55 m

Current weather observation

The report was made 56 minutes ago, at 00:00 UTC
Calm wind
Temperature 14°C
Humidity 94%
Pressure 1016 hPa
Visibility: 5000 m
Scattered clouds at a height of 3000 ft
Broken clouds at a height of 8000 ft
mist

METAR: OKBK 160000Z 00000KT 5000 BR SCT030 BKN080 14/13 Q1016 NOSIG

Time: 03:56 (00:56 UTC)

Forecast

The report was made 2 hours and 11 minutes ago, at 22:45 UTC
Forecast valid from 16 at 00 UTC to 17 at 06 UTC
Wind 3 kt from variable directions
Visibility: 6000 m
Scattered clouds at a height of 3000 ft
Broken clouds at a height of 8000 ft
Temporary
from 16 at 00 UTC to 16 at 06 UTC
Visibility: 2000 m
mist, haze

TAF: OKBK 152245Z 1600/1706 VRB03KT 6000 SCT030 BKN080 TEMPO 1600/1606 2000 BR HZ

Weather observations and forecasts of more than 4000 airports (METAR and TAF reports).

The available stations are represented by yellow and red dots on the map.

Hover mouse over dot to see the name of the station.

Then click to see weather observations and forecasts.

To change the map : click on the green buttons with a black cross to zoom in, on the green button with a dash to zoom out, or on the green arrows for adjacent maps.


METAR-TAF: